createdAt,value
2022-08-17T00:00:43.353Z,23.37
2022-08-17T00:03:02.865Z,23.30
2022-08-17T00:05:31.597Z,23.25
2022-08-17T00:07:58.507Z,23.32
2022-08-17T00:10:25.276Z,23.25
2022-08-17T00:12:52.495Z,23.13
2022-08-17T00:15:21.143Z,23.27
2022-08-17T00:17:50.172Z,23.19
2022-08-17T00:20:17.449Z,23.07
2022-08-17T00:22:46.529Z,23.12
2022-08-17T00:25:16.635Z,23.14
2022-08-17T00:27:43.094Z,23.08
2022-08-17T00:30:11.637Z,23.12
2022-08-17T00:33:12.213Z,23.14
2022-08-17T00:35:34.703Z,23.00
2022-08-17T00:38:01.198Z,22.95
2022-08-17T00:40:27.893Z,22.89
2022-08-17T00:43:35.956Z,22.97
2022-08-17T00:46:14.520Z,22.77
2022-08-17T00:48:42.198Z,22.83
2022-08-17T00:51:22.917Z,22.86
2022-08-17T00:54:04.649Z,22.80
2022-08-17T00:56:44.952Z,22.73
2022-08-17T00:59:14.714Z,22.70
2022-08-17T01:01:41.705Z,22.73
2022-08-17T01:04:08.663Z,22.77
2022-08-17T01:06:35.683Z,22.74
2022-08-17T01:09:03.815Z,22.76
2022-08-17T01:11:32.740Z,22.81
2022-08-17T01:13:59.172Z,22.91
2022-08-17T01:16:30.657Z,22.95
2022-08-17T01:19:00.466Z,22.84
2022-08-17T01:21:39.380Z,22.83
2022-08-17T01:24:06.079Z,22.72
2022-08-17T01:26:33.332Z,22.81
2022-08-17T01:29:00.705Z,22.58
2022-08-17T01:31:30.856Z,22.72
2022-08-17T01:34:00.584Z,22.76
2022-08-17T01:36:28.383Z,22.71
2022-08-17T01:38:55.005Z,22.60
2022-08-17T01:41:21.880Z,22.56
2022-08-17T01:43:54.553Z,22.52
2022-08-17T01:46:28.199Z,22.58
2022-08-17T01:48:56.274Z,22.48
2022-08-17T01:51:23.645Z,22.42
2022-08-17T01:53:57.445Z,22.37
2022-08-17T01:56:24.689Z,22.44
2022-08-17T01:58:51.817Z,22.45
2022-08-17T02:01:21.557Z,22.47
2022-08-17T02:03:59.396Z,22.39
2022-08-17T02:06:31.390Z,22.34
2022-08-17T02:09:09.531Z,22.13
2022-08-17T02:11:43.664Z,22.07
2022-08-17T02:14:11.836Z,22.12
2022-08-17T02:16:40.231Z,22.24
2022-08-17T02:19:08.992Z,22.20
2022-08-17T02:21:36.819Z,22.16
2022-08-17T02:24:04.993Z,22.24
2022-08-17T02:26:31.604Z,22.27
2022-08-17T02:28:58.058Z,22.29
2022-08-17T02:31:24.485Z,22.19
2022-08-17T02:34:04.210Z,22.16
2022-08-17T02:36:35.598Z,22.12
2022-08-17T02:39:07.336Z,22.14
2022-08-17T02:41:34.229Z,22.01
2022-08-17T02:44:00.759Z,21.95
2022-08-17T02:46:28.321Z,21.88
2022-08-17T02:48:54.880Z,22.05
2022-08-17T02:51:21.297Z,22.03
2022-08-17T02:53:47.978Z,22.15
2022-08-17T02:56:14.441Z,22.16
2022-08-17T02:58:40.901Z,22.04
2022-08-17T03:01:09.969Z,21.89
2022-08-17T03:03:37.319Z,21.80
2022-08-17T03:06:04.421Z,22.03
2022-08-17T03:08:31.301Z,21.83
2022-08-17T03:10:57.716Z,21.64
2022-08-17T03:13:24.218Z,21.77
2022-08-17T03:15:50.861Z,21.86
2022-08-17T03:18:25.786Z,21.79
2022-08-17T03:20:57.896Z,21.82
2022-08-17T03:23:25.482Z,21.73
2022-08-17T03:25:53.755Z,21.82
2022-08-17T03:28:21.580Z,21.84
2022-08-17T03:30:48.322Z,21.72
2022-08-17T03:33:14.965Z,21.73
2022-08-17T03:35:41.853Z,21.86
2022-08-17T03:38:15.194Z,21.67
2022-08-17T03:40:57.135Z,21.77
2022-08-17T03:43:27.565Z,21.84
2022-08-17T03:46:27.940Z,21.78
2022-08-17T03:49:22.250Z,21.74
2022-08-17T03:52:07.332Z,21.73
2022-08-17T03:54:52.246Z,21.88
2022-08-17T03:57:19.221Z,21.86
2022-08-17T03:59:45.940Z,21.99
2022-08-17T04:02:24.782Z,21.84
2022-08-17T04:04:52.117Z,21.81
2022-08-17T04:07:22.727Z,21.73
2022-08-17T04:09:49.703Z,21.84
2022-08-17T04:12:18.497Z,21.68
2022-08-17T04:14:52.243Z,21.70
2022-08-17T04:17:21.316Z,21.61
2022-08-17T04:19:47.753Z,21.77
2022-08-17T04:22:30.582Z,21.59
2022-08-17T04:24:58.133Z,21.69
2022-08-17T04:27:25.379Z,21.58
2022-08-17T04:29:54.615Z,21.60
2022-08-17T04:32:59.376Z,21.67
2022-08-17T04:35:09.682Z,21.68
2022-08-17T04:37:36.173Z,21.61
2022-08-17T04:40:21.367Z,21.80
2022-08-17T04:43:07.548Z,21.83
2022-08-17T04:45:34.921Z,21.67
2022-08-17T04:48:01.562Z,21.87
2022-08-17T04:50:28.203Z,21.79
2022-08-17T04:52:54.853Z,21.69
2022-08-17T04:55:21.787Z,21.76
2022-08-17T04:57:48.278Z,21.82
2022-08-17T05:00:15.103Z,22.18
2022-08-17T05:02:49.788Z,22.03
2022-08-17T05:05:20.825Z,22.08
2022-08-17T05:07:47.553Z,22.23
2022-08-17T05:10:16.752Z,22.42
2022-08-17T05:12:43.561Z,22.54
2022-08-17T05:15:16.127Z,22.53
2022-08-17T05:17:43.715Z,22.56
2022-08-17T05:20:10.565Z,22.67
2022-08-17T05:22:37.227Z,22.86
2022-08-17T05:25:03.798Z,22.87
2022-08-17T05:27:35.079Z,22.89
2022-08-17T05:30:02.234Z,23.01
2022-08-17T05:32:39.006Z,22.98
2022-08-17T05:35:07.096Z,22.86
2022-08-17T05:37:33.587Z,22.93
2022-08-17T05:40:00.141Z,23.10
2022-08-17T05:42:26.762Z,23.09
2022-08-17T05:44:53.242Z,23.42
2022-08-17T05:47:20.835Z,23.48
2022-08-17T05:49:49.028Z,23.45
2022-08-17T05:52:46.324Z,23.54
2022-08-17T05:55:35.642Z,23.78
2022-08-17T05:58:27.202Z,23.79
2022-08-17T06:01:04.243Z,24.01
2022-08-17T06:03:40.588Z,23.93
2022-08-17T06:06:31.405Z,23.95
2022-08-17T06:09:13.258Z,23.94
2022-08-17T06:12:21.963Z,23.96
2022-08-17T06:15:07.428Z,24.13
2022-08-17T06:17:34.367Z,24.12
2022-08-17T06:20:06.712Z,24.21
2022-08-17T06:22:36.859Z,24.34
2022-08-17T06:25:09.994Z,24.44
2022-08-17T06:27:40.689Z,24.65
2022-08-17T06:30:27.350Z,24.56
2022-08-17T06:32:57.473Z,24.82
2022-08-17T06:35:47.620Z,24.97
2022-08-17T06:38:38.188Z,25.39
2022-08-17T06:41:12.256Z,25.57
2022-08-17T06:44:06.347Z,25.67
2022-08-17T06:46:48.472Z,25.27
2022-08-17T06:49:22.635Z,25.45
2022-08-17T06:51:58.076Z,25.69
2022-08-17T06:54:39.170Z,25.97
2022-08-17T06:57:28.260Z,25.92
2022-08-17T06:59:57.853Z,25.93
2022-08-17T07:02:51.011Z,25.97
2022-08-17T07:05:21.709Z,26.21
2022-08-17T07:08:03.098Z,26.39
2022-08-17T07:10:37.268Z,26.47
2022-08-17T07:13:29.363Z,26.34
2022-08-17T07:16:15.914Z,26.42
2022-08-17T07:18:43.750Z,26.41
2022-08-17T07:21:42.423Z,26.49
2022-08-17T07:24:30.193Z,26.54
2022-08-17T07:27:04.655Z,26.75
2022-08-17T07:29:34.284Z,26.77
2022-08-17T07:32:00.703Z,26.86
2022-08-17T07:34:27.237Z,26.87
2022-08-17T07:37:05.361Z,26.92
2022-08-17T07:39:31.843Z,27.06
2022-08-17T07:42:03.519Z,27.29
2022-08-17T07:44:30.033Z,27.45
2022-08-17T07:47:15.706Z,27.44
2022-08-17T07:49:47.403Z,27.65
2022-08-17T07:52:50.692Z,27.70
2022-08-17T07:55:32.715Z,27.68
2022-08-17T07:57:59.519Z,27.92
2022-08-17T08:00:32.079Z,28.07
2022-08-17T08:03:17.680Z,28.21
2022-08-17T08:05:51.539Z,28.46
2022-08-17T08:08:26.161Z,28.74
2022-08-17T08:11:02.295Z,28.90
2022-08-17T08:13:30.152Z,29.19
2022-08-17T08:16:24.428Z,29.44
2022-08-17T08:18:57.963Z,29.79
2022-08-17T08:21:30.690Z,29.81
2022-08-17T08:24:15.930Z,29.82
2022-08-17T08:27:07.137Z,29.72
2022-08-17T08:30:05.187Z,29.73
2022-08-17T08:32:48.596Z,29.88
2022-08-17T08:35:20.292Z,29.96
2022-08-17T08:38:00.013Z,30.21
2022-08-17T08:40:43.248Z,30.22
2022-08-17T08:43:52.212Z,30.30
2022-08-17T08:46:47.145Z,30.50
2022-08-17T08:49:45.265Z,30.74
2022-08-17T08:52:27.818Z,30.78
2022-08-17T08:55:03.266Z,30.77
2022-08-17T08:57:37.148Z,30.87
2022-08-17T09:00:18.123Z,31.01
2022-08-17T09:03:03.319Z,31.19
2022-08-17T09:05:56.185Z,31.00
2022-08-17T09:08:55.859Z,31.32
2022-08-17T09:11:25.241Z,31.52
2022-08-17T09:14:00.734Z,31.57
2022-08-17T09:16:33.113Z,31.47
2022-08-17T09:19:19.408Z,31.53
2022-08-17T09:21:54.530Z,31.33
2022-08-17T09:24:43.191Z,31.68
2022-08-17T09:27:23.929Z,31.89
2022-08-17T09:30:07.840Z,32.13
2022-08-17T09:32:38.692Z,32.68
2022-08-17T09:35:33.785Z,32.82
2022-08-17T09:38:29.128Z,32.72
2022-08-17T09:41:26.104Z,32.72
2022-08-17T09:44:30.051Z,33.34
2022-08-17T09:47:10.486Z,33.61
2022-08-17T09:49:45.624Z,33.50
2022-08-17T09:52:17.922Z,33.64
2022-08-17T09:54:45.262Z,33.50
2022-08-17T09:57:42.767Z,33.38
2022-08-17T10:00:17.824Z,33.34
2022-08-17T10:03:08.376Z,33.34
2022-08-17T10:05:56.596Z,32.94
2022-08-17T10:08:36.120Z,33.18
2022-08-17T10:11:16.033Z,33.09
2022-08-17T10:14:01.914Z,33.25
2022-08-17T10:17:02.760Z,33.59
2022-08-17T10:19:36.563Z,33.73
2022-08-17T10:22:34.964Z,33.61
2022-08-17T10:25:27.872Z,33.06
2022-08-17T10:28:14.262Z,33.12
2022-08-17T10:31:01.423Z,33.32
2022-08-17T10:33:49.351Z,33.57
2022-08-17T10:36:22.627Z,33.78
2022-08-17T10:39:52.671Z,34.00
2022-08-17T10:42:33.031Z,34.15
2022-08-17T10:45:07.339Z,34.30
2022-08-17T10:48:04.665Z,34.32
2022-08-17T10:50:59.839Z,33.95
2022-08-17T10:53:32.264Z,34.17
2022-08-17T10:56:13.904Z,34.52
2022-08-17T10:58:49.393Z,34.97
2022-08-17T11:01:17.022Z,35.32
2022-08-17T11:03:52.376Z,34.93
2022-08-17T11:06:39.034Z,35.10
2022-08-17T11:09:31.575Z,35.49
2022-08-17T11:12:07.259Z,35.18
2022-08-17T11:14:52.498Z,35.19
2022-08-17T11:17:43.240Z,35.17
2022-08-17T11:20:54.240Z,35.17
2022-08-17T11:23:39.898Z,35.29
2022-08-17T11:26:27.274Z,35.64
2022-08-17T11:28:59.515Z,36.15
2022-08-17T11:31:39.254Z,36.14
2022-08-17T11:34:23.331Z,36.37
2022-08-17T11:36:49.635Z,36.44
2022-08-17T11:39:43.157Z,36.37
2022-08-17T11:42:27.885Z,36.41
2022-08-17T11:45:32.073Z,36.16
2022-08-17T11:48:36.047Z,35.83
2022-08-17T11:51:35.656Z,35.61
2022-08-17T11:54:31.706Z,35.81
2022-08-17T11:56:53.320Z,35.89
2022-08-17T11:59:43.799Z,35.90
2022-08-17T12:02:31.773Z,35.66
2022-08-17T12:05:26.044Z,35.58
2022-08-17T12:08:01.379Z,35.45
2022-08-17T12:10:33.013Z,35.57
2022-08-17T12:13:05.931Z,35.67
2022-08-17T12:15:36.539Z,35.46
2022-08-17T12:18:03.513Z,35.47
2022-08-17T12:20:33.728Z,35.49
2022-08-17T12:23:21.779Z,35.00
2022-08-17T12:25:59.381Z,34.88
2022-08-17T12:28:29.035Z,34.91
2022-08-17T12:31:01.100Z,34.91
2022-08-17T12:33:28.907Z,34.82
2022-08-17T12:36:03.606Z,34.69
2022-08-17T12:38:34.381Z,34.44
2022-08-17T12:41:25.110Z,34.51
2022-08-17T12:44:03.658Z,34.86
2022-08-17T12:46:45.032Z,34.90
2022-08-17T12:49:22.890Z,35.02
2022-08-17T12:51:50.847Z,35.26
2022-08-17T12:54:45.133Z,35.33
2022-08-17T12:57:18.900Z,35.54
2022-08-17T12:59:50.522Z,35.42
2022-08-17T13:02:22.700Z,35.57
2022-08-17T13:04:49.351Z,35.96
2022-08-17T13:07:36.086Z,36.27
2022-08-17T13:10:03.454Z,36.53
2022-08-17T13:12:33.526Z,36.81
2022-08-17T13:15:00.560Z,36.72
2022-08-17T13:17:30.456Z,36.48
2022-08-17T13:19:57.370Z,36.13
2022-08-17T13:22:25.454Z,35.63
2022-08-17T13:24:55.181Z,35.19
2022-08-17T13:27:24.482Z,34.56
2022-08-17T13:29:53.796Z,34.40
2022-08-17T13:32:35.839Z,34.34
2022-08-17T13:35:50.111Z,34.42
2022-08-17T13:38:40.409Z,34.90
2022-08-17T13:41:07.502Z,34.83
2022-08-17T13:43:46.008Z,34.98
2022-08-17T13:46:18.476Z,35.39
2022-08-17T13:48:46.283Z,35.46
2022-08-17T13:51:15.935Z,35.44
2022-08-17T13:53:42.351Z,35.44
2022-08-17T13:56:36.940Z,35.46
2022-08-17T13:59:03.602Z,35.39
2022-08-17T14:01:50.937Z,35.42
2022-08-17T14:04:31.599Z,35.37
2022-08-17T14:07:02.720Z,35.44
2022-08-17T14:09:37.415Z,35.21
2022-08-17T14:12:08.539Z,35.12
2022-08-17T14:14:35.278Z,35.10
2022-08-17T14:17:01.838Z,35.15
2022-08-17T14:19:28.293Z,35.25
2022-08-17T14:21:58.869Z,35.43
2022-08-17T14:24:31.187Z,35.42
2022-08-17T14:26:59.083Z,35.73
2022-08-17T14:29:27.890Z,35.97
2022-08-17T14:31:55.219Z,36.06
2022-08-17T14:34:23.021Z,35.90
2022-08-17T14:36:49.719Z,35.74
2022-08-17T14:39:16.518Z,35.57
2022-08-17T14:41:43.465Z,35.40
2022-08-17T14:44:12.533Z,35.13
2022-08-17T14:46:43.378Z,35.07
2022-08-17T14:49:11.233Z,34.75
2022-08-17T14:51:43.748Z,34.31
2022-08-17T14:54:11.763Z,34.04
2022-08-17T14:57:15.562Z,34.35
2022-08-17T14:59:44.680Z,34.47
2022-08-17T15:02:11.246Z,34.29
2022-08-17T15:04:41.865Z,34.26
2022-08-17T15:07:11.480Z,34.48
2022-08-17T15:09:37.922Z,34.64
2022-08-17T15:12:06.470Z,34.71
2022-08-17T15:14:34.914Z,34.55
2022-08-17T15:17:03.432Z,34.41
2022-08-17T15:19:29.893Z,34.12
2022-08-17T15:21:56.318Z,33.88
2022-08-17T15:24:22.809Z,33.76
2022-08-17T15:26:49.260Z,33.68
2022-08-17T15:29:15.852Z,33.90
2022-08-17T15:31:42.302Z,33.81
2022-08-17T15:34:08.776Z,33.80
2022-08-17T15:36:35.830Z,33.80
2022-08-17T15:39:03.106Z,33.65
2022-08-17T15:41:29.847Z,33.43
2022-08-17T15:43:56.460Z,33.38
2022-08-17T15:46:25.623Z,33.05
2022-08-17T15:48:56.567Z,33.04
2022-08-17T15:51:28.996Z,33.03
2022-08-17T15:54:22.123Z,32.89
2022-08-17T15:56:49.507Z,32.77
2022-08-17T15:59:15.986Z,32.74
2022-08-17T16:02:29.867Z,32.72
2022-08-17T16:04:30.829Z,32.59
2022-08-17T16:06:59.299Z,32.46
2022-08-17T16:09:25.784Z,32.41
2022-08-17T16:11:55.060Z,32.40
2022-08-17T16:14:22.382Z,32.24
2022-08-17T16:16:50.516Z,32.04
2022-08-17T16:19:17.102Z,31.87
2022-08-17T16:21:43.564Z,31.77
2022-08-17T16:24:13.237Z,31.73
2022-08-17T16:26:40.387Z,31.63
2022-08-17T16:29:07.204Z,31.53
2022-08-17T16:31:34.318Z,31.45
2022-08-17T16:34:17.266Z,31.41
2022-08-17T16:36:55.198Z,31.35
2022-08-17T16:39:27.355Z,31.24
2022-08-17T16:41:54.448Z,31.27
2022-08-17T16:44:21.647Z,31.28
2022-08-17T16:46:48.522Z,31.20
2022-08-17T16:49:29.671Z,31.12
2022-08-17T16:52:03.273Z,31.12
2022-08-17T16:54:29.774Z,31.17
2022-08-17T16:56:56.240Z,31.24
2022-08-17T16:59:38.826Z,31.19
2022-08-17T17:02:11.053Z,30.90
2022-08-17T17:05:08.002Z,30.68
2022-08-17T17:07:40.535Z,30.65
2022-08-17T17:10:13.546Z,30.39
2022-08-17T17:13:03.015Z,30.59
2022-08-17T17:15:35.493Z,30.31
2022-08-17T17:18:06.168Z,30.26
2022-08-17T17:20:47.972Z,29.87
2022-08-17T17:23:28.145Z,29.65
2022-08-17T17:26:32.185Z,29.51
2022-08-17T17:29:11.033Z,29.50
2022-08-17T17:31:51.192Z,29.40
2022-08-17T17:34:18.412Z,29.47
2022-08-17T17:36:54.166Z,29.26
2022-08-17T17:39:37.008Z,29.28
2022-08-17T17:42:07.562Z,29.36
2022-08-17T17:44:38.269Z,29.13
2022-08-17T17:47:05.184Z,28.89
2022-08-17T17:49:43.882Z,28.87
2022-08-17T17:52:36.119Z,28.73
2022-08-17T17:55:23.637Z,28.86
2022-08-17T17:58:04.825Z,28.86
2022-08-17T18:00:39.584Z,28.78
2022-08-17T18:03:27.887Z,28.70
2022-08-17T18:05:57.583Z,28.72
2022-08-17T18:08:34.852Z,28.73
2022-08-17T18:11:34.790Z,28.72
2022-08-17T18:14:31.545Z,28.64
2022-08-17T18:17:00.210Z,28.49
2022-08-17T18:19:29.202Z,28.46
2022-08-17T18:22:05.069Z,28.35
2022-08-17T18:24:39.226Z,28.40
2022-08-17T18:27:23.317Z,28.48
2022-08-17T18:29:55.003Z,28.22
2022-08-17T18:32:28.295Z,28.05
2022-08-17T18:35:09.606Z,27.97
2022-08-17T18:37:39.094Z,27.82
2022-08-17T18:40:18.232Z,27.45
2022-08-17T18:42:56.083Z,27.34
2022-08-17T18:45:45.112Z,27.28
2022-08-17T18:48:33.095Z,27.20
2022-08-17T18:51:07.703Z,27.08
2022-08-17T18:53:40.607Z,27.06
2022-08-17T18:56:22.162Z,27.05
2022-08-17T18:58:57.048Z,26.98
2022-08-17T19:01:47.137Z,26.86
2022-08-17T19:04:28.376Z,26.73
2022-08-17T19:07:11.258Z,26.73
2022-08-17T19:09:45.929Z,26.52
2022-08-17T19:12:36.467Z,26.21
2022-08-17T19:15:03.275Z,26.24
2022-08-17T19:17:39.995Z,26.10
2022-08-17T19:20:17.132Z,26.15
2022-08-17T19:22:54.686Z,26.19
2022-08-17T19:25:27.018Z,26.01
2022-08-17T19:28:03.226Z,25.88
2022-08-17T19:30:30.199Z,25.85
2022-08-17T19:32:58.378Z,25.73
2022-08-17T19:35:27.749Z,25.80
2022-08-17T19:38:12.882Z,25.55
2022-08-17T19:40:53.544Z,25.54
2022-08-17T19:43:34.668Z,25.43
2022-08-17T19:46:10.213Z,25.41
2022-08-17T19:48:39.524Z,25.33
2022-08-17T19:51:30.755Z,25.12
2022-08-17T19:54:14.057Z,25.11
2022-08-17T19:56:55.800Z,25.12
2022-08-17T19:59:25.255Z,25.11
2022-08-17T20:01:54.586Z,25.09
2022-08-17T20:04:31.779Z,25.04
2022-08-17T20:07:06.718Z,24.95
2022-08-17T20:09:44.495Z,24.95
2022-08-17T20:12:14.500Z,24.85
2022-08-17T20:14:55.118Z,24.86
2022-08-17T20:17:25.072Z,24.76
2022-08-17T20:20:21.441Z,24.68
2022-08-17T20:22:54.832Z,24.70
2022-08-17T20:25:36.458Z,24.68
2022-08-17T20:28:17.492Z,24.63
2022-08-17T20:30:44.309Z,24.53
2022-08-17T20:33:32.323Z,24.46
2022-08-17T20:36:10.864Z,24.42
2022-08-17T20:38:41.070Z,24.34
2022-08-17T20:41:17.843Z,24.28
2022-08-17T20:43:51.223Z,24.34
2022-08-17T20:46:34.127Z,24.30
2022-08-17T20:49:23.898Z,24.29
2022-08-17T20:52:09.027Z,24.13
2022-08-17T20:54:57.308Z,23.96
2022-08-17T20:57:32.985Z,23.99
2022-08-17T21:00:15.268Z,23.93
2022-08-17T21:02:49.202Z,24.04
2022-08-17T21:05:34.478Z,24.03
2022-08-17T21:08:28.439Z,24.11
2022-08-17T21:10:55.620Z,24.03
2022-08-17T21:13:34.772Z,23.95
2022-08-17T21:16:08.013Z,23.94
2022-08-17T21:18:40.348Z,23.90
2022-08-17T21:21:31.835Z,23.92
2022-08-17T21:24:20.036Z,24.08
2022-08-17T21:26:58.623Z,24.00
2022-08-17T21:29:30.943Z,24.14
2022-08-17T21:31:59.081Z,24.15
2022-08-17T21:34:36.463Z,24.09
2022-08-17T21:37:28.536Z,24.13
2022-08-17T21:40:21.421Z,24.00
2022-08-17T21:42:51.456Z,24.01
2022-08-17T21:45:25.734Z,23.95
2022-08-17T21:48:21.144Z,23.92
2022-08-17T21:51:11.327Z,23.88
2022-08-17T21:53:50.541Z,23.96
2022-08-17T21:56:25.014Z,23.87
2022-08-17T21:59:01.170Z,23.78
2022-08-17T22:01:34.606Z,23.98
2022-08-17T22:04:11.347Z,23.95
2022-08-17T22:06:55.820Z,23.99
2022-08-17T22:09:30.062Z,23.98
2022-08-17T22:12:05.197Z,23.83
2022-08-17T22:14:53.243Z,23.77
2022-08-17T22:17:23.463Z,23.75
2022-08-17T22:19:56.565Z,23.89
2022-08-17T22:22:33.727Z,23.53
2022-08-17T22:25:08.495Z,23.84
2022-08-17T22:27:46.651Z,23.56
2022-08-17T22:30:32.938Z,23.29
2022-08-17T22:33:00.814Z,23.23
2022-08-17T22:35:32.587Z,23.08
2022-08-17T22:38:20.608Z,23.25
2022-08-17T22:40:51.991Z,23.31
2022-08-17T22:43:25.873Z,23.51
2022-08-17T22:45:55.545Z,23.62
2022-08-17T22:48:27.565Z,23.71
2022-08-17T22:51:12.507Z,23.75
2022-08-17T22:54:14.976Z,23.63
2022-08-17T22:57:14.324Z,23.77
2022-08-17T22:59:49.151Z,23.59
2022-08-17T23:02:20.296Z,23.77
2022-08-17T23:04:51.283Z,23.80
2022-08-17T23:07:19.011Z,23.67
2022-08-17T23:09:45.877Z,23.78
2022-08-17T23:12:16.352Z,23.68
2022-08-17T23:14:45.767Z,23.73
2022-08-17T23:17:12.797Z,23.72
2022-08-17T23:19:39.713Z,23.81
2022-08-17T23:22:07.531Z,23.84
2022-08-17T23:24:43.718Z,23.71
2022-08-17T23:27:10.701Z,23.74
2022-08-17T23:29:39.341Z,23.70
2022-08-17T23:32:06.445Z,23.62
2022-08-17T23:34:32.966Z,23.62
2022-08-17T23:37:02.124Z,23.69
2022-08-17T23:39:28.662Z,23.70
2022-08-17T23:41:59.331Z,23.74
2022-08-17T23:44:26.644Z,23.78
2022-08-17T23:46:54.091Z,23.76
2022-08-17T23:49:20.881Z,23.70
2022-08-17T23:51:48.335Z,23.72
2022-08-17T23:54:26.647Z,23.59
2022-08-17T23:56:53.139Z,23.63
2022-08-17T23:59:21.478Z,23.55
